Aviation Digital Data Service (ADDS)

Output produced by METARs form (0110 UTC 24 May 2022)
found at http://www.aviationweather.gov/metar/data/
 
TAF VRMG 232300Z 2400/2506 29008KT 9999 FEW018 
     TEMPO 2402/2408 FEW019CB
       
TAF VRMH 232300Z 2400/2506 26007KT 9999 FEW017TCU 
     TEMPO 2400/2406 5000 TSRA FEW017CB